Time;durP1;ratioP1;P1;durP2;ratioP2;P2;SDS_P1;SDS_P2;PMS_P1;PMS_P2;Temp;Humidity;BMP_temperature;BMP_pressure;BME280_temperature;BME280_humidity;BME280_pressure;Samples;Min_cycle;Max_cycle;Signal;HPM_P1;HPM_P2
2022/03/04 00:00:54;;;;;;;25.38;13.10;;;;;;;;;;5050994;28;20661;-68
2022/03/04 00:03:20;;;;;;;23.73;12.70;;;;;;;;;;5033318;28;20044;-68
2022/03/04 00:05:46;;;;;;;24.90;12.70;;;;;;;;;;5049930;28;20099;-68
2022/03/04 00:08:12;;;;;;;25.40;13.18;;;;;;;;;;5051087;28;20076;-68
2022/03/04 00:10:38;;;;;;;23.98;11.90;;;;;;;;;;5049765;28;20033;-68
2022/03/04 00:13:05;;;;;;;24.33;12.95;;;;;;;;;;5033287;28;20174;-69
2022/03/04 00:15:32;;;;;;;25.90;12.73;;;;;;;;;;5049799;28;20079;-68
2022/03/04 00:17:58;;;;;;;22.35;12.15;;;;;;;;;;5051754;28;20068;-68
2022/03/04 00:20:25;;;;;;;22.33;12.35;;;;;;;;;;5050053;28;20044;-68
2022/03/04 00:22:51;;;;;;;23.77;12.73;;;;;;;;;;5050300;28;20045;-68
2022/03/04 00:25:18;;;;;;;23.00;11.90;;;;;;;;;;5050098;28;20067;-68
2022/03/04 00:27:44;;;;;;;25.42;11.35;;;2.70;99.90;;;;;;5049701;28;20080;-68
2022/03/04 00:30:10;;;;;;;25.52;12.57;;;2.60;99.90;;;;;;5049787;28;20091;-68
2022/03/04 00:32:35;;;;;;;22.05;10.85;;;2.60;99.90;;;;;;5049976;28;20094;-68
2022/03/04 00:35:02;;;;;;;22.60;10.73;;;;;;;;;;5049983;28;20037;-68
2022/03/04 00:37:28;;;;;;;22.85;11.13;;;;;;;;;;5049764;28;20498;-68
2022/03/04 00:39:54;;;;;;;20.70;10.90;;;;;;;;;;5049507;28;20037;-68
2022/03/04 00:42:20;;;;;;;20.88;10.98;;;;;;;;;;5033260;28;20410;-68
2022/03/04 00:44:46;;;;;;;19.33;10.60;;;;;;;;;;5049890;28;20103;-68
2022/03/04 00:47:11;;;;;;;20.10;10.73;;;2.50;99.90;;;;;;5049679;28;20076;-68
2022/03/04 00:49:37;;;;;;;18.55;10.55;;;2.40;99.90;;;;;;5049458;28;20036;-68
2022/03/04 00:52:03;;;;;;;21.20;10.10;;;2.30;99.90;;;;;;5050550;28;20128;-68
2022/03/04 00:54:29;;;;;;;20.20;10.80;;;;;;;;;;5050625;28;20060;-68
2022/03/04 00:56:55;;;;;;;21.25;10.98;;;;;;;;;;5032992;28;20052;-68
2022/03/04 00:59:21;;;;;;;19.05;10.23;;;2.20;99.90;;;;;;5049610;28;20041;-68
2022/03/04 01:01:47;;;;;;;20.50;10.95;;;;;;;;;;5049808;28;20037;-68
2022/03/04 01:04:13;;;;;;;21.00;10.88;;;;;;;;;;5049545;28;20075;-68
2022/03/04 01:06:39;;;;;;;19.77;11.02;;;2.00;99.90;;;;;;5049439;28;20437;-68
2022/03/04 01:09:08;;;;;;;21.45;10.05;;;;;;;;;;5049378;28;20037;-68
2022/03/04 01:11:34;;;;;;;21.08;10.55;;;;;;;;;;5049521;28;20511;-68
2022/03/04 01:14:00;;;;;;;19.90;10.38;;;2.20;99.90;;;;;;5032951;28;20102;-68
2022/03/04 01:16:26;;;;;;;18.90;9.55;;;2.10;99.90;;;;;;5049356;28;20083;-69
2022/03/04 01:18:51;;;;;;;22.95;11.13;;;2.10;99.90;;;;;;5049154;28;20049;-66
2022/03/04 01:21:17;;;;;;;21.73;10.32;;;1.90;99.90;;;;;;5032652;28;20132;-68
2022/03/04 01:23:42;;;;;;;20.73;10.60;;;2.00;99.90;;;;;;5032610;28;20041;-68
2022/03/04 01:26:08;;;;;;;20.42;10.48;;;2.10;99.90;;;;;;5034745;28;20148;-69
2022/03/04 01:28:34;;;;;;;20.73;10.82;;;2.00;99.90;;;;;;5054426;28;20489;-68
2022/03/04 01:30:59;;;;;;;20.88;10.43;;;2.00;99.90;;;;;;5035932;28;20033;-68
2022/03/04 01:33:25;;;;;;;20.35;9.55;;;;;;;;;;5054300;28;20102;-68
2022/03/04 01:35:51;;;;;;;17.90;9.85;;;;;;;;;;5052650;28;20120;-68
2022/03/04 01:38:17;;;;;;;19.73;9.50;;;1.80;99.90;;;;;;5052952;28;20121;-68
2022/03/04 01:40:43;;;;;;;22.13;10.88;;;;;;;;;;5035764;28;20574;-68
2022/03/04 01:43:09;;;;;;;19.35;9.77;;;1.80;99.90;;;;;;5052905;28;20419;-68
2022/03/04 01:45:34;;;;;;;20.23;9.57;;;1.90;99.90;;;;;;5076676;22;20045;-70
2022/03/04 01:48:00;;;;;;;19.13;9.57;;;1.90;99.90;;;;;;5052840;28;20187;-69
2022/03/04 01:50:26;;;;;;;16.20;8.80;;;1.80;99.90;;;;;;5052166;28;20485;-70
2022/03/04 01:52:56;;;;;;;20.17;10.10;;;;;;;;;;5052627;28;20040;-70
2022/03/04 01:55:22;;;;;;;22.02;8.82;;;;;;;;;;5052923;28;20148;-70
2022/03/04 01:57:50;;;;;;;19.27;9.13;;;;;;;;;;5053013;28;20052;-70
2022/03/04 02:00:17;;;;;;;18.95;9.25;;;;;;;;;;5052288;28;20465;-70
2022/03/04 02:02:43;;;;;;;19.10;9.77;;;;;;;;;;5052645;28;20041;-70
2022/03/04 02:05:13;;;;;;;18.27;9.75;;;;;;;;;;5052780;28;20453;-69
2022/03/04 02:07:39;;;;;;;19.65;9.93;;;;;;;;;;5052414;28;20430;-69
2022/03/04 02:10:06;;;;;;;17.95;8.88;;;;;;;;;;5052321;28;20045;-70
2022/03/04 02:12:31;;;;;;;19.70;10.73;;;;;;;;;;5052531;28;20072;-68
2022/03/04 02:14:57;;;;;;;19.88;11.25;;;;;;;;;;5052155;28;20430;-69
2022/03/04 02:17:23;;;;;;;23.23;10.48;;;;;;;;;;5052266;28;20453;-70
2022/03/04 02:19:53;;;;;;;20.40;9.75;;;;;;;;;;5052073;28;20048;-70
2022/03/04 02:22:19;;;;;;;16.90;9.73;;;;;;;;;;5052203;28;20060;-69
2022/03/04 02:24:45;;;;;;;20.35;10.52;;;;;;;;;;5052305;28;20502;-70
2022/03/04 02:27:11;;;;;;;18.50;9.93;;;;;;;;;;5052140;28;20048;-69
2022/03/04 02:29:37;;;;;;;21.75;10.98;;;;;;;;;;5035225;28;20033;-70
2022/03/04 02:32:04;;;;;;;22.05;10.30;;;;;;;;;;5052333;28;20041;-70
2022/03/04 02:34:30;;;;;;;19.00;10.70;;;;;;;;;;5035579;28;20607;-70
2022/03/04 02:36:56;;;;;;;20.70;10.43;;;;;;;;;;5051250;28;20124;-70
2022/03/04 02:39:22;;;;;;;23.30;10.55;;;;;;;;;;5051548;28;20102;-69
2022/03/04 02:41:48;;;;;;;21.88;11.35;;;;;;;;;;5051907;28;20081;-69
2022/03/04 02:44:15;;;;;;;22.52;11.38;;;;;;;;;;5051771;28;20599;-69
2022/03/04 02:46:41;;;;;;;22.45;11.05;;;;;;;;;;5051764;28;20434;-70
2022/03/04 02:49:07;;;;;;;22.98;11.02;;;;;;;;;;5034617;28;20060;-69
2022/03/04 02:51:34;;;;;;;19.85;11.23;;;;;;;;;;5051584;28;20044;-70
2022/03/04 02:54:00;;;;;;;23.90;11.43;;;;;;;;;;5051538;28;20047;-70
2022/03/04 02:56:26;;;;;;;23.65;11.55;;;;;;;;;;5052963;28;20116;-70
2022/03/04 02:58:51;;;;;;;22.55;10.13;;;;;;;;;;5051366;28;20037;-69
2022/03/04 03:01:18;;;;;;;20.85;10.75;;;;;;;;;;5051557;28;20048;-69
2022/03/04 03:03:44;;;;;;;22.25;10.57;;;;;;;;;;5051600;28;20406;-70
2022/03/04 03:06:10;;;;;;;20.63;12.05;;;;;;;;;;5051057;28;20048;-70
2022/03/04 03:08:36;;;;;;;22.80;11.43;;;;;;;;;;5034632;28;20037;-73
2022/03/04 03:11:03;;;;;;;25.52;12.15;;;;;;;;;;5051211;28;20057;-70
2022/03/04 03:13:29;;;;;;;19.60;11.43;;;;;;;;;;5051658;28;20033;-70
2022/03/04 03:15:55;;;;;;;22.85;11.20;;;;;;;;;;5051347;28;20503;-70
2022/03/04 03:18:21;;;;;;;23.13;11.35;;;;;;;;;;5051159;28;20051;-70
2022/03/04 03:20:47;;;;;;;25.98;11.70;;;;;;;;;;5050790;28;20628;-70
2022/03/04 03:23:13;;;;;;;27.30;12.10;;;;;;;;;;5051297;28;20068;-70
2022/03/04 03:25:39;;;;;;;22.17;11.45;;;;;;;;;;5050828;28;20094;-70
2022/03/04 03:28:05;;;;;;;22.73;11.80;;;;;;;;;;5050936;28;20141;-70
2022/03/04 03:30:31;;;;;;;23.23;11.40;;;;;;;;;;5033945;28;20048;-70
2022/03/04 03:32:58;;;;;;;25.45;11.57;;;;;;;;;;5050795;28;20033;-70
2022/03/04 03:35:24;;;;;;;22.98;12.45;;;;;;;;;;5050717;28;20040;-70
2022/03/04 03:37:50;;;;;;;23.02;11.23;;;;;;;;;;5051044;28;20102;-70
2022/03/04 03:40:16;;;;;;;23.75;12.73;;;;;;;;;;5050398;28;20036;-70
2022/03/04 03:42:44;;;;;;;23.27;12.30;;;;;;;;;;5050819;28;20037;-70
2022/03/04 03:45:11;;;;;;;25.50;12.05;;;;;;;;;;5050608;28;20541;-70
2022/03/04 03:47:40;;;;;;;25.17;11.75;;;;;;;;;;5050429;28;20091;-70
2022/03/04 03:50:09;;;;;;;26.27;12.68;;;;;;;;;;5049716;28;20063;-69
2022/03/04 03:52:35;;;;;;;25.92;13.45;;;;;;;;;;5050729;28;20098;-70
2022/03/04 03:55:01;;;;;;;21.13;11.23;;;;;;;;;;5034058;28;20398;-70
2022/03/04 03:57:27;;;;;;;22.08;11.93;;;;;;;;;;5050636;28;20037;-70
2022/03/04 03:59:53;;;;;;;27.40;12.65;;;;;;;;;;5050129;28;20049;-70
2022/03/04 04:02:19;;;;;;;22.58;12.00;;;;;;;;;;5034157;28;20048;-71
2022/03/04 04:04:46;;;;;;;26.85;14.05;;;;;;;;;;5050614;28;20383;-70
2022/03/04 04:07:12;;;;;;;26.48;12.68;;;;;;;;;;5033640;28;20629;-70
2022/03/04 04:09:39;;;;;;;28.33;13.32;;;;;;;;;;5050001;28;20044;-70
2022/03/04 04:12:05;;;;;;;27.73;12.80;;;;;;;;;;5050196;28;20529;-70
2022/03/04 04:14:31;;;;;;;26.27;12.88;;;;;;;;;;5033613;28;20342;-70
2022/03/04 04:16:58;;;;;;;27.55;12.70;;;;;;;;;;5050276;28;20041;-70
2022/03/04 04:19:24;;;;;;;24.63;12.60;;;;;;;;;;5049881;28;20526;-70
2022/03/04 04:21:50;;;;;;;29.25;12.88;;;;;;;;;;5033456;28;20048;-70
2022/03/04 04:24:17;;;;;;;27.80;13.48;;;;;;;;;;5050217;28;20044;-70
2022/03/04 04:26:43;;;;;;;29.80;13.02;;;;;;;;;;5050143;28;20528;-70
2022/03/04 04:29:09;;;;;;;28.63;13.43;;;;;;;;;;5033257;28;20029;-70
2022/03/04 04:31:35;;;;;;;26.08;13.40;;;;;;;;;;5050137;28;20037;-70
2022/03/04 04:34:01;;;;;;;27.25;12.82;;;;;;;;;;5033684;28;20407;-70
2022/03/04 04:36:28;;;;;;;24.15;12.27;;;;;;;;;;5049921;28;20041;-70
2022/03/04 04:38:54;;;;;;;24.85;12.48;;;;;;;;;;5049904;28;20037;-70
2022/03/04 04:41:20;;;;;;;26.73;12.30;;;;;;;;;;5033578;28;20398;-70
2022/03/04 04:43:46;;;;;;;27.48;12.95;;;;;;;;;;5050235;28;20394;-70
2022/03/04 04:46:13;;;;;;;22.35;11.98;;;;;;;;;;5049878;28;20045;-71
2022/03/04 04:48:39;;;;;;;25.48;12.73;;;;;;;;;;5050147;28;20048;-70
2022/03/04 04:51:05;;;;;;;23.13;12.40;;;;;;;;;;5049767;28;20502;-70
2022/03/04 04:53:32;;;;;;;27.65;14.77;;;;;;;;;;5049847;28;20037;-70
2022/03/04 04:55:58;;;;;;;23.10;11.98;;;;;;;;;;5049849;28;20037;-70
2022/03/04 04:58:24;;;;;;;29.15;13.15;;;;;;;;;;5033282;28;20048;-70
2022/03/04 05:00:53;;;;;;;28.10;15.05;;;;;;;;;;5051587;28;20453;-70
2022/03/04 05:03:26;;;;;;;22.17;12.15;;;;;;;;;;5053751;28;20044;-71
2022/03/04 05:05:53;;;;;;;25.85;12.77;;;;;;;;;;5053629;28;20047;-70
2022/03/04 05:08:20;;;;;;;26.60;12.35;;;;;;;;;;5053519;28;20041;-70
2022/03/04 05:10:46;;;;;;;25.98;13.18;;;;;;;;;;5053275;28;20091;-70
2022/03/04 05:13:13;;;;;;;31.02;13.82;;;;;;;;;;5053496;28;20037;-70
2022/03/04 05:15:39;;;;;;;28.05;13.55;;;;;;;;;;5053354;28;20494;-70
2022/03/04 05:18:05;;;;;;;31.75;14.60;;;;;;;;;;5053331;28;20048;-70
2022/03/04 05:20:31;;;;;;;30.23;14.25;;;;;;;;;;5053082;28;20045;-71
2022/03/04 05:22:57;;;;;;;25.33;13.05;;;;;;;;;;5053321;28;20036;-70
2022/03/04 05:25:23;;;;;;;27.55;13.90;;;;;;;;;;5036801;28;20415;-70
2022/03/04 05:27:50;;;;;;;27.58;13.95;;;;;;;;;;5053141;28;20075;-69
2022/03/04 05:30:16;;;;;;;26.67;13.23;;;;;;;;;;5052821;28;20051;-70
2022/03/04 05:32:42;;;;;;;25.20;13.00;;;0.50;99.90;;;;;;5053436;28;20037;-71
2022/03/04 05:35:08;;;;;;;28.40;15.13;;;;;;;;;;5053203;28;20497;-71
2022/03/04 05:37:34;;;;;;;31.83;14.52;;;;;;;;;;5036427;28;20048;-70
2022/03/04 05:40:00;;;;;;;25.70;13.50;;;;;;;;;;5052652;28;20037;-70
2022/03/04 05:42:26;;;;;;;31.92;14.43;;;;;;;;;;5053012;28;20478;-70
2022/03/04 05:44:52;;;;;;;26.98;13.50;;;0.50;99.90;;;;;;5036236;28;20087;-71
2022/03/04 05:47:19;;;;;;;31.42;14.93;;;;;;;;;;5052842;28;20419;-70
2022/03/04 05:49:44;;;;;;;28.52;14.90;;;;;;;;;;5053897;28;20131;-71
2022/03/04 05:52:10;;;;;;;29.80;13.75;;;;;;;;;;5052896;28;20140;-71
2022/03/04 05:54:37;;;;;;;30.48;15.82;;;;;;;;;;5036031;28;20044;-70
2022/03/04 05:57:03;;;;;;;27.80;14.55;;;;;;;;;;5052986;28;20044;-70
2022/03/04 05:59:29;;;;;;;25.83;13.48;;;;;;;;;;5052310;28;20568;-70
2022/03/04 06:01:55;;;;;;;28.23;13.55;;;;;;;;;;5052617;28;20040;-71
2022/03/04 06:04:21;;;;;;;31.90;15.35;;;;;;;;;;5035915;28;20491;-71
2022/03/04 06:06:47;;;;;;;33.33;15.20;;;;;;;;;;5052471;28;20048;-71
2022/03/04 06:09:13;;;;;;;32.90;16.33;;;;;;;;;;5035836;28;20033;-70
2022/03/04 06:11:39;;;;;;;35.50;16.88;;;;;;;;;;5051777;28;20044;-70
2022/03/04 06:14:06;;;;;;;30.70;15.38;;;;;;;;;;5052528;28;20049;-70
2022/03/04 06:16:32;;;;;;;30.85;15.23;;;;;;;;;;5052309;28;20040;-71
2022/03/04 06:18:58;;;;;;;30.92;16.45;;;;;;;;;;5052341;28;20033;-70
2022/03/04 06:21:25;;;;;;;29.77;15.48;;;;;;;;;;5052160;28;20049;-70
2022/03/04 06:23:51;;;;;;;41.17;16.00;;;;;;;;;;5035559;28;20072;-71
2022/03/04 06:26:17;;;;;;;37.80;18.65;;;;;;;;;;5035719;28;20094;-70
2022/03/04 06:28:43;;;;;;;35.40;16.20;;;;;;;;;;5035421;28;20406;-70
2022/03/04 06:31:09;;;;;;;30.27;15.98;;;;;;;;;;5052052;28;20033;-71
2022/03/04 06:33:37;;;;;;;36.85;17.10;;;;;;;;;;5052072;28;20499;-71
2022/03/04 06:36:05;;;;;;;32.80;16.38;;;;;;;;;;5035500;28;20044;-70
2022/03/04 06:38:32;;;;;;;30.42;15.77;;;;;;;;;;5035253;28;20048;-70
2022/03/04 06:40:58;;;;;;;36.97;17.10;;;;;;;;;;5034826;28;20494;-71
2022/03/04 06:43:24;;;;;;;35.33;16.63;;;;;;;;;;5051801;28;20071;-70
2022/03/04 06:45:50;;;;;;;42.25;16.98;;;;;;;;;;5051782;28;20047;-71
2022/03/04 06:48:22;;;;;;;37.95;18.45;;;0.70;99.90;;;;;;5035125;28;20041;-70
2022/03/04 06:50:48;;;;;;;37.75;18.02;;;;;;;;;;5051870;28;20037;-71
2022/03/04 06:53:18;;;;;;;36.15;18.13;;;;;;;;;;5035647;28;20395;-71
2022/03/04 06:55:44;;;;;;;40.88;17.55;;;0.60;99.90;;;;;;5032168;28;20123;-69
2022/03/04 06:58:10;;;;;;;38.28;17.48;;;;;;;;;;5018812;28;20038;-70
2022/03/04 07:00:38;;;;;;;37.58;16.85;;;;;;;;;;5020054;28;20137;-70
2022/03/04 07:03:04;;;;;;;33.90;17.92;;;;;;;;;;5036418;28;20595;-71
2022/03/04 07:05:30;;;;;;;35.13;16.52;;;;;;;;;;5040128;28;20339;-70
2022/03/04 07:07:56;;;;;;;36.30;18.35;;;;;;;;;;5038282;28;20079;-71
2022/03/04 07:10:23;;;;;;;37.70;18.13;;;;;;;;;;5046873;28;20125;-71
2022/03/04 07:12:49;;;;;;;35.88;18.05;;;;;;;;;;5034423;28;20033;-70
2022/03/04 07:15:15;;;;;;;38.50;17.77;;;;;;;;;;5040024;28;20041;-70
2022/03/04 07:17:41;;;;;;;31.10;15.63;;;;;;;;;;5032623;28;20102;-70
2022/03/04 07:20:08;;;;;;;36.72;17.65;;;0.70;99.90;;;;;;5044437;28;20049;-70
2022/03/04 07:22:35;;;;;;;33.65;16.73;;;;;;;;;;5046922;28;20482;-70
2022/03/04 07:25:03;;;;;;;37.85;17.85;;;;;;;;;;5046854;28;20722;-70
2022/03/04 07:27:29;;;;;;;34.28;16.13;;;;;;;;;;5045647;28;20036;-71
2022/03/04 07:29:55;;;;;;;35.72;17.60;;;;;;;;;;5048453;28;20105;-70
2022/03/04 07:32:22;;;;;;;36.60;17.15;;;;;;;;;;5047366;28;20121;-71
2022/03/04 07:34:48;;;;;;;32.80;16.60;;;;;;;;;;5039875;28;20041;-70
2022/03/04 07:37:14;;;;;;;32.10;17.10;;;;;;;;;;5037026;28;20447;-70
2022/03/04 07:39:40;;;;;;;38.58;18.08;;;;;;;;;;5025827;28;20073;-70
2022/03/04 07:42:06;;;;;;;34.78;16.83;;;;;;;;;;5028714;28;20446;-70
2022/03/04 07:44:31;;;;;;;35.33;16.48;;;0.80;99.90;;;;;;5038043;28;20044;-71
2022/03/04 07:46:57;;;;;;;37.28;20.30;;;;;;;;;;5021013;22;20047;-71
2022/03/04 07:49:23;;;;;;;43.08;21.90;;;;;;;;;;4973078;28;20489;-71
2022/03/04 07:51:49;;;;;;;39.92;18.67;;;;;;;;;;4974063;28;20041;-71
2022/03/04 07:54:18;;;;;;;37.88;18.88;;;;;;;;;;4990799;28;20042;-71
2022/03/04 07:56:44;;;;;;;37.90;18.75;;;;;;;;;;4973769;28;20137;-70
2022/03/04 07:59:10;;;;;;;37.15;18.20;;;;;;;;;;4974849;28;20467;-70
2022/03/04 08:01:36;;;;;;;35.03;16.77;;;;;;;;;;4968391;28;20081;-72
2022/03/04 08:04:02;;;;;;;43.35;19.92;;;;;;;;;;4974484;28;20042;-73
2022/03/04 08:06:28;;;;;;;36.33;17.92;;;;;;;;;;4990462;28;20161;-72
2022/03/04 08:08:54;;;;;;;33.72;17.38;;;;;;;;;;4973368;28;20213;-72
2022/03/04 08:11:20;;;;;;;35.92;18.40;;;;;;;;;;4990328;28;20496;-71
2022/03/04 08:13:46;;;;;;;41.38;19.38;;;;;;;;;;4990263;28;20404;-72
2022/03/04 08:16:11;;;;;;;38.95;17.85;;;;;;;;;;4989989;28;20049;-72
2022/03/04 08:18:38;;;;;;;35.25;17.25;;;;;;;;;;4991043;28;20050;-71
2022/03/04 08:21:03;;;;;;;39.97;18.45;;;1.20;99.90;;;;;;4989369;28;20074;-71
2022/03/04 08:23:30;;;;;;;37.13;18.17;;;;;;;;;;4990351;28;20124;-71
2022/03/04 08:25:57;;;;;;;43.65;18.95;;;1.20;99.90;;;;;;4974004;28;20045;-71
2022/03/04 08:28:23;;;;;;;40.15;19.45;;;;;;;;;;4988872;28;20117;-71
2022/03/04 08:30:49;;;;;;;36.85;19.05;;;;;;;;;;4990163;28;20126;-71
2022/03/04 08:33:15;;;;;;;39.83;18.05;;;;;;;;;;4973594;28;20057;-71
2022/03/04 08:35:41;;;;;;;38.10;17.77;;;;;;;;;;4991148;28;20523;-71
2022/03/04 08:38:07;;;;;;;36.70;17.77;;;;;;;;;;4994629;28;20423;-71
2022/03/04 08:40:33;;;;;;;33.50;17.90;;;;;;;;;;4993433;28;20048;-71
2022/03/04 08:42:59;;;;;;;36.92;18.63;;;;;;;;;;4993379;28;20571;-71
2022/03/04 08:45:25;;;;;;;37.17;18.38;;;;;;;;;;4993962;28;20416;-71
2022/03/04 08:47:51;;;;;;;35.17;17.50;;;;;;;;;;4976511;28;20040;-71
2022/03/04 08:50:17;;;;;;;38.08;19.58;;;1.40;99.90;;;;;;4977854;28;20046;-71
2022/03/04 08:52:44;;;;;;;34.40;17.50;;;;;;;;;;4994003;28;20121;-71
2022/03/04 08:55:14;;;;;;;39.40;18.50;;;;;;;;;;4976770;28;20077;-71
2022/03/04 08:57:41;;;;;;;37.65;18.95;;;;;;;;;;4994174;28;20039;-71
2022/03/04 09:00:07;;;;;;;34.40;18.08;;;;;;;;;;4976845;28;20445;-71
2022/03/04 09:02:33;;;;;;;35.55;18.10;;;;;;;;;;4994325;28;20056;-71
2022/03/04 09:04:59;;;;;;;37.13;18.58;;;;;;;;;;4994164;28;20050;-71
2022/03/04 09:07:25;;;;;;;35.38;18.73;;;;;;;;;;4992892;28;20508;-71
2022/03/04 09:09:51;;;;;;;32.42;17.40;;;;;;;;;;4993022;28;20046;-71
2022/03/04 09:12:19;;;;;;;34.63;17.58;;;;;;;;;;4994244;28;20042;-71
2022/03/04 09:14:45;;;;;;;36.70;18.15;;;;;;;;;;4976052;28;20038;-71
2022/03/04 09:17:11;;;;;;;34.47;17.30;;;;;;;;;;4994839;28;20045;-71
2022/03/04 09:19:37;;;;;;;30.88;17.40;;;;;;;;;;4992570;28;20522;-71
2022/03/04 09:22:04;;;;;;;31.95;18.00;;;;;;;;;;4993056;28;20045;-71
2022/03/04 09:24:30;;;;;;;30.17;16.48;;;;;;;;;;4976868;28;20540;-71
2022/03/04 09:26:56;;;;;;;34.63;17.40;;;;;;;;;;4992669;28;20045;-71
2022/03/04 09:29:22;;;;;;;30.35;16.52;;;;;;;;;;4992289;28;20068;-71
2022/03/04 09:31:48;;;;;;;35.28;17.60;;;;;;;;;;4994127;28;20097;-71
2022/03/04 09:34:15;;;;;;;32.08;16.30;;;;;;;;;;4995692;28;20030;-71
2022/03/04 09:36:41;;;;;;;33.33;17.33;;;;;;;;;;4999923;28;20117;-71
2022/03/04 09:39:07;;;;;;;32.95;16.90;;;;;;;;;;4999025;28;20387;-71
2022/03/04 09:41:33;;;;;;;32.97;16.95;;;;;;;;;;4985365;28;20049;-71
2022/03/04 09:43:59;;;;;;;32.85;18.05;;;;;;;;;;5002725;28;20408;-71
2022/03/04 09:46:25;;;;;;;34.58;16.38;;;;;;;;;;4981913;28;20040;-71
2022/03/04 09:48:52;;;;;;;33.22;16.85;;;;;;;;;;4998690;28;20408;-71
2022/03/04 09:51:20;;;;;;;35.03;16.70;;;2.10;99.90;;;;;;4998506;28;20050;-71
2022/03/04 09:53:46;;;;;;;32.08;16.52;;;;;;;;;;4987648;28;20126;-71
2022/03/04 09:56:13;;;;;;;33.28;16.65;;;;;;;;;;4992274;28;20117;-71
2022/03/04 09:58:39;;;;;;;32.17;17.08;;;;;;;;;;4992560;28;20096;-71
2022/03/04 10:01:09;;;;;;;35.42;17.80;;;;;;;;;;4975882;28;20049;-69
2022/03/04 10:03:36;;;;;;;30.02;16.02;;;;;;;;;;4985084;28;20041;-69
2022/03/04 10:06:04;;;;;;;36.13;18.90;;;;;;;;;;5002882;28;20113;-70
2022/03/04 10:08:36;;;;;;;32.00;16.77;;;;;;;;;;4989852;28;20053;-70
2022/03/04 10:11:02;;;;;;;33.85;17.02;;;;;;;;;;4979078;28;20072;-71
2022/03/04 10:13:49;;;;;;;29.75;16.33;;;2.90;99.90;;;;;;4995168;28;20686;-70
2022/03/04 10:16:27;;;;;;;31.45;15.82;;;;;;;;;;4981420;28;20093;-70
2022/03/04 10:19:07;;;;;;;28.45;15.38;;;;;;;;;;4989619;28;20092;-70
2022/03/04 10:21:51;;;;;;;28.95;15.50;;;;;;;;;;4990734;28;20041;-70
2022/03/04 10:24:21;;;;;;;28.45;16.13;;;;;;;;;;4990545;28;20053;-70
2022/03/04 10:26:48;;;;;;;27.20;14.85;;;;;;;;;;4990639;28;20042;-71
2022/03/04 10:29:18;;;;;;;29.30;15.52;;;;;;;;;;4990716;28;20034;-70
2022/03/04 10:32:06;;;;;;;28.58;14.98;;;3.80;99.90;;;;;;4975493;28;20444;-70
2022/03/04 10:34:50;;;;;;;25.02;14.57;;;3.80;99.90;;;;;;4987763;28;20038;-70
2022/03/04 10:37:22;;;;;;;24.40;13.75;;;;;;;;;;4991211;28;20048;-70
2022/03/04 10:40:04;;;;;;;23.50;14.02;;;;;;;;;;4982526;28;20516;-70
2022/03/04 10:42:38;;;;;;;26.08;14.88;;;;;;;;;;4971277;28;20413;-70
2022/03/04 10:45:06;;;;;;;25.10;13.10;;;;;;;;;;4975197;28;20053;-70
2022/03/04 10:47:44;;;;;;;27.67;14.20;;;4.00;99.90;;;;;;4977967;28;20030;-70
2022/03/04 10:50:10;;;;;;;22.70;13.20;;;;;;;;;;4990371;28;20124;-71
2022/03/04 10:52:47;;;;;;;30.67;15.65;;;;;;;;;;4991319;28;20066;-71
2022/03/04 10:55:13;;;;;;;25.92;13.90;;;;;;;;;;4978255;28;20177;-71
2022/03/04 10:57:42;;;;;;;30.85;16.83;;;;;;;;;;4998825;28;20479;-71
2022/03/04 11:00:08;;;;;;;25.95;15.15;;;4.30;99.90;;;;;;4979064;28;20045;-71
2022/03/04 11:02:43;;;;;;;28.33;15.48;;;4.60;99.90;;;;;;4985579;28;20038;-70
2022/03/04 11:05:10;;;;;;;25.70;15.23;;;;;;;;;;4990976;28;20126;-70
2022/03/04 11:07:38;;;;;;;26.10;14.77;;;;;;;;;;4987987;28;20045;-71
2022/03/04 11:10:04;;;;;;;23.05;13.75;;;;;;;;;;4973314;28;20404;-70
2022/03/04 11:12:30;;;;;;;26.05;14.00;;;;;;;;;;4989985;28;20261;-71
2022/03/04 11:14:57;;;;;;;24.50;14.50;;;;;;;;;;4985242;28;20030;-70
2022/03/04 11:17:24;;;;;;;24.00;14.30;;;4.80;99.90;;;;;;4973733;28;20128;-70
2022/03/04 11:19:50;;;;;;;25.33;14.40;;;4.70;99.90;;;;;;4989398;28;20045;-70
2022/03/04 11:22:16;;;;;;;25.60;14.98;;;5.00;99.90;;;;;;4990230;28;20508;-70
2022/03/04 11:24:42;;;;;;;26.05;14.80;;;;;;;;;;4990258;28;20049;-70
2022/03/04 11:27:12;;;;;;;23.50;14.40;;;5.10;99.90;;;;;;4991920;28;20501;-70
2022/03/04 11:29:38;;;;;;;26.73;13.95;;;5.30;99.90;;;;;;4991387;28;20046;-70
2022/03/04 11:32:06;;;;;;;21.58;14.02;;;5.20;99.90;;;;;;4997656;28;20377;-70
2022/03/04 11:34:37;;;;;;;23.08;13.60;;;;;;;;;;4994232;28;20520;-69
2022/03/04 11:37:03;;;;;;;22.67;13.30;;;;;;;;;;4998032;28;20096;-70
2022/03/04 11:39:29;;;;;;;23.85;13.57;;;5.30;99.90;;;;;;5000575;28;20133;-70
2022/03/04 11:41:55;;;;;;;21.60;13.25;;;5.40;99.90;;;;;;4994115;28;20125;-70
2022/03/04 11:44:23;;;;;;;20.88;13.10;;;5.40;99.90;;;;;;4991685;28;20436;-70
2022/03/04 11:46:55;;;;;;;22.27;13.70;;;5.40;99.90;;;;;;4991605;28;20084;-71
2022/03/04 11:49:46;;;;;;;22.63;14.10;;;5.70;99.90;;;;;;4997261;28;20047;-71
2022/03/04 11:52:19;;;;;;;20.83;12.25;;;;;;;;;;4991895;28;20459;-70
2022/03/04 11:54:52;;;;;;;20.90;12.07;;;;;;;;;;4975640;28;20470;-71
2022/03/04 11:57:38;;;;;;;22.50;12.85;;;5.80;99.90;;;;;;4990785;28;20050;-70
2022/03/04 12:00:11;;;;;;;19.60;11.38;;;;;;;;;;4991518;28;20061;-71
2022/03/04 12:02:48;;;;;;;23.13;11.57;;;6.30;99.90;;;;;;4975649;28;20409;-71
2022/03/04 12:05:14;;;;;;;22.85;13.02;;;6.10;99.90;;;;;;4991436;28;20053;-71
2022/03/04 12:07:41;;;;;;;21.58;12.90;;;6.00;99.90;;;;;;4975310;28;20408;-71
2022/03/04 12:10:11;;;;;;;20.40;12.05;;;;;;;;;;4990680;28;20148;-72
2022/03/04 12:12:38;;;;;;;21.17;11.70;;;;;;;;;;4991293;28;20617;-71
2022/03/04 12:15:17;;;;;;;25.25;13.40;;;;;;;;;;4991324;28;20121;-71
2022/03/04 12:18:02;;;;;;;21.75;12.70;;;6.40;99.90;;;;;;4993503;28;20092;-71
2022/03/04 12:20:40;;;;;;;17.98;11.70;;;;;;;;;;4996312;28;20057;-72
2022/03/04 12:23:14;;;;;;;23.75;13.38;;;6.50;99.90;;;;;;4999445;28;20097;-72
2022/03/04 12:25:56;;;;;;;20.45;12.43;;;;;;;;;;5005123;28;20404;-71
2022/03/04 12:28:32;;;;;;;21.17;12.23;;;6.60;99.90;;;;;;4995888;28;20152;-72
2022/03/04 12:31:01;;;;;;;19.77;12.70;;;;;;;;;;4998386;28;20042;-72
2022/03/04 12:33:38;;;;;;;20.75;11.75;;;6.60;99.90;;;;;;4991224;28;20074;-71
2022/03/04 12:36:05;;;;;;;17.45;11.20;;;;;;;;;;4991526;28;20053;-72
2022/03/04 12:38:37;;;;;;;18.35;11.55;;;;;;;;;;4992834;28;20050;-71
2022/03/04 12:41:03;;;;;;;24.70;12.48;;;;;;;;;;4976149;28;20042;-72
2022/03/04 12:43:29;;;;;;;18.48;10.75;;;;;;;;;;4992613;28;20404;-71
2022/03/04 12:45:55;;;;;;;15.38;9.73;;;;;;;;;;4990667;28;20042;-71
2022/03/04 12:48:23;;;;;;;16.35;10.40;;;6.80;99.90;;;;;;5001183;28;20045;-71
2022/03/04 12:50:49;;;;;;;19.25;10.98;;;;;;;;;;4993856;28;20034;-71
2022/03/04 12:53:18;;;;;;;18.00;9.18;;;6.90;99.90;;;;;;5010667;28;20046;-72
2022/03/04 12:55:51;;;;;;;16.23;9.55;;;6.90;99.90;;;;;;5000482;28;20038;-72
2022/03/04 12:58:17;;;;;;;17.65;9.23;;;;;;;;;;5009957;28;20397;-72
2022/03/04 13:00:43;;;;;;;15.48;9.48;;;;;;;;;;5009804;28;20038;-72
2022/03/04 13:03:20;;;;;;;16.98;9.50;;;7.20;99.90;;;;;;4999402;28;20034;-71
2022/03/04 13:05:46;;;;;;;17.58;10.95;;;;;;;;;;4998883;28;20044;-71
2022/03/04 13:08:15;;;;;;;16.05;8.85;;;7.20;99.90;;;;;;4984221;28;20377;-71
2022/03/04 13:10:41;;;;;;;15.68;8.85;;;7.40;99.90;;;;;;4983720;28;20089;-71
2022/03/04 13:13:06;;;;;;;14.75;9.48;;;7.20;99.90;;;;;;5007346;28;20034;-72
2022/03/04 13:15:33;;;;;;;16.13;9.88;;;;;;;;;;5010064;28;20492;-72
2022/03/04 13:18:00;;;;;;;15.40;9.82;;;;;;;;;;4998078;28;20080;-72
2022/03/04 13:20:26;;;;;;;15.50;9.10;;;7.50;99.90;;;;;;4990333;28;20038;-72
2022/03/04 13:23:02;;;;;;;17.55;9.63;;;7.50;99.90;;;;;;4994102;28;20042;-71
2022/03/04 13:25:29;;;;;;;16.67;10.18;;;;;;;;;;4994140;28;20125;-72
2022/03/04 13:27:55;;;;;;;17.55;9.07;;;;;;;;;;4993683;28;20045;-71
2022/03/04 13:30:21;;;;;;;15.45;9.63;;;;;;;;;;4993466;28;20428;-72
2022/03/04 13:32:54;;;;;;;14.80;9.05;;;7.60;99.90;;;;;;4994130;28;20045;-72
2022/03/04 13:35:24;;;;;;;16.02;10.43;;;7.70;99.90;;;;;;4993950;28;20121;-71
2022/03/04 13:37:51;;;;;;;15.43;9.25;;;7.70;99.90;;;;;;4994048;28;20034;-72
2022/03/04 13:40:22;;;;;;;16.25;9.38;;;7.90;99.90;;;;;;4977626;28;20080;-72
2022/03/04 13:42:52;;;;;;;16.48;8.80;;;7.80;99.90;;;;;;4993948;28;20046;-71
2022/03/04 13:48:03;;;;;;;13.77;8.00;;;7.80;99.90;;;;;;5055697;22;20048;-69
2022/03/04 13:50:33;;;;;;;14.55;9.02;;;7.90;99.90;;;;;;5031640;28;20037;-67
2022/03/04 13:52:59;;;;;;;15.52;9.52;;;;;;;;;;5032919;28;20045;-69
2022/03/04 13:55:34;;;;;;;14.18;9.40;;;7.70;99.90;;;;;;5032536;28;20525;-70
2022/03/04 13:58:06;;;;;;;16.52;9.50;;;;;;;;;;5014091;28;20045;-70